sensor_id;sensor_type;location;lat;lon;timestamp;pressure;altitude;pressure_sealevel;temperature;humidity
70200;BME280;57587;55.688;37.600;2022-11-20T00:01:23;99511.47;;;-0.22;70.46
70200;BME280;57587;55.688;37.600;2022-11-20T00:03:52;99515.56;;;-0.18;70.02
70200;BME280;57587;55.688;37.600;2022-11-20T00:06:21;99505.28;;;-0.21;70.24
70200;BME280;57587;55.688;37.600;2022-11-20T00:08:49;99504.09;;;-0.17;70.08
70200;BME280;57587;55.688;37.600;2022-11-20T00:11:18;99508.16;;;-0.13;70.00
70200;BME280;57587;55.688;37.600;2022-11-20T00:13:49;99507.44;;;-0.15;69.68
70200;BME280;57587;55.688;37.600;2022-11-20T00:16:19;99511.28;;;-0.08;70.15
70200;BME280;57587;55.688;37.600;2022-11-20T00:18:47;99519.13;;;-0.19;69.79
70200;BME280;57587;55.688;37.600;2022-11-20T00:21:25;99513.88;;;-0.19;69.59
70200;BME280;57587;55.688;37.600;2022-11-20T00:23:54;99508.03;;;-0.22;69.75
70200;BME280;57587;55.688;37.600;2022-11-20T00:26:23;99510.31;;;-0.18;69.34
70200;BME280;57587;55.688;37.600;2022-11-20T00:28:53;99518.31;;;-0.19;69.20
70200;BME280;57587;55.688;37.600;2022-11-20T00:31:21;99500.13;;;-0.34;69.13
70200;BME280;57587;55.688;37.600;2022-11-20T00:33:48;99514.94;;;-0.33;69.38
70200;BME280;57587;55.688;37.600;2022-11-20T00:36:21;99511.47;;;-0.33;69.21
70200;BME280;57587;55.688;37.600;2022-11-20T00:38:52;99521.22;;;-0.47;69.15
70200;BME280;57587;55.688;37.600;2022-11-20T00:41:20;99518.88;;;-0.38;69.39
70200;BME280;57587;55.688;37.600;2022-11-20T00:43:48;99515.91;;;-0.34;68.72
70200;BME280;57587;55.688;37.600;2022-11-20T00:46:18;99513.16;;;-0.32;68.70
70200;BME280;57587;55.688;37.600;2022-11-20T00:48:45;99505.38;;;-0.34;68.66
70200;BME280;57587;55.688;37.600;2022-11-20T00:51:15;99516.13;;;-0.26;67.99
70200;BME280;57587;55.688;37.600;2022-11-20T00:53:43;99514.66;;;-0.41;68.28
70200;BME280;57587;55.688;37.600;2022-11-20T00:56:15;99520.81;;;-0.29;68.33
70200;BME280;57587;55.688;37.600;2022-11-20T00:58:45;99512.81;;;-0.28;67.41
70200;BME280;57587;55.688;37.600;2022-11-20T01:01:17;99527.47;;;-0.36;67.68
70200;BME280;57587;55.688;37.600;2022-11-20T01:03:46;99524.72;;;-0.35;67.49
70200;BME280;57587;55.688;37.600;2022-11-20T01:06:22;99529.53;;;-0.29;67.05
70200;BME280;57587;55.688;37.600;2022-11-20T01:08:51;99514.53;;;-0.51;66.92
70200;BME280;57587;55.688;37.600;2022-11-20T01:11:30;99517.28;;;-0.52;67.72
70200;BME280;57587;55.688;37.600;2022-11-20T01:13:59;99525.25;;;-0.65;67.84
70200;BME280;57587;55.688;37.600;2022-11-20T01:16:30;99511.00;;;-0.62;67.93
70200;BME280;57587;55.688;37.600;2022-11-20T01:18:59;99516.91;;;-0.59;67.44
70200;BME280;57587;55.688;37.600;2022-11-20T01:21:29;99515.28;;;-0.73;67.73
70200;BME280;57587;55.688;37.600;2022-11-20T01:23:57;99519.63;;;-0.60;67.47
70200;BME280;57587;55.688;37.600;2022-11-20T01:26:27;99521.06;;;-0.56;67.27
70200;BME280;57587;55.688;37.600;2022-11-20T01:28:57;99514.38;;;-0.60;67.33
70200;BME280;57587;55.688;37.600;2022-11-20T01:31:36;99529.09;;;-0.58;67.57
70200;BME280;57587;55.688;37.600;2022-11-20T01:34:06;99519.91;;;-0.52;67.02
70200;BME280;57587;55.688;37.600;2022-11-20T01:36:35;99523.00;;;-0.47;66.81
70200;BME280;57587;55.688;37.600;2022-11-20T01:39:06;99525.41;;;-0.44;66.74
70200;BME280;57587;55.688;37.600;2022-11-20T01:41:34;99527.72;;;-0.39;66.78
70200;BME280;57587;55.688;37.600;2022-11-20T01:44:22;99525.56;;;-0.34;66.46
70200;BME280;57587;55.688;37.600;2022-11-20T01:47:09;99534.88;;;-0.41;66.41
70200;BME280;57587;55.688;37.600;2022-11-20T01:49:46;99535.47;;;-0.38;66.63
70200;BME280;57587;55.688;37.600;2022-11-20T01:52:18;99526.41;;;-0.34;66.56
70200;BME280;57587;55.688;37.600;2022-11-20T01:55:11;99529.66;;;-0.30;67.49
70200;BME280;57587;55.688;37.600;2022-11-20T01:57:40;99543.16;;;-0.24;66.41
70200;BME280;57587;55.688;37.600;2022-11-20T02:00:10;99540.41;;;-0.22;66.37
70200;BME280;57587;55.688;37.600;2022-11-20T02:02:44;99552.63;;;-0.21;66.11
70200;BME280;57587;55.688;37.600;2022-11-20T02:08:02;99550.91;;;-0.33;65.74
70200;BME280;57587;55.688;37.600;2022-11-20T02:10:30;99560.63;;;-0.22;66.11
70200;BME280;57587;55.688;37.600;2022-11-20T02:12:58;99558.06;;;-0.35;65.99
70200;BME280;57587;55.688;37.600;2022-11-20T02:15:44;99559.25;;;-0.39;65.96
70200;BME280;57587;55.688;37.600;2022-11-20T02:18:14;99561.38;;;-0.44;65.84
70200;BME280;57587;55.688;37.600;2022-11-20T02:20:44;99572.41;;;-0.39;66.56
70200;BME280;57587;55.688;37.600;2022-11-20T02:25:47;99567.47;;;-0.44;66.15
70200;BME280;57587;55.688;37.600;2022-11-20T02:28:17;99580.06;;;-0.36;66.06
70200;BME280;57587;55.688;37.600;2022-11-20T02:30:44;99574.53;;;-0.44;65.80
70200;BME280;57587;55.688;37.600;2022-11-20T02:33:11;99574.06;;;-0.38;66.13
70200;BME280;57587;55.688;37.600;2022-11-20T02:35:45;99584.13;;;-0.32;65.66
70200;BME280;57587;55.688;37.600;2022-11-20T02:38:13;99590.59;;;-0.25;65.77
70200;BME280;57587;55.688;37.600;2022-11-20T02:40:41;99587.75;;;-0.22;65.71
70200;BME280;57587;55.688;37.600;2022-11-20T02:43:09;99583.34;;;-0.21;65.53
70200;BME280;57587;55.688;37.600;2022-11-20T02:45:37;99576.66;;;-0.14;65.09
70200;BME280;57587;55.688;37.600;2022-11-20T02:48:06;99585.63;;;-0.17;64.83
70200;BME280;57587;55.688;37.600;2022-11-20T02:50:36;99589.91;;;-0.27;64.65
70200;BME280;57587;55.688;37.600;2022-11-20T02:53:04;99580.06;;;-0.36;65.43
70200;BME280;57587;55.688;37.600;2022-11-20T02:55:31;99583.16;;;-0.31;65.25
70200;BME280;57587;55.688;37.600;2022-11-20T02:57:59;99563.13;;;-0.56;65.67
70200;BME280;57587;55.688;37.600;2022-11-20T03:00:26;99570.31;;;-0.47;65.69
70200;BME280;57587;55.688;37.600;2022-11-20T03:02:53;99569.78;;;-0.39;65.52
70200;BME280;57587;55.688;37.600;2022-11-20T03:05:20;99578.81;;;-0.43;65.38
70200;BME280;57587;55.688;37.600;2022-11-20T03:07:47;99579.97;;;-0.59;65.98
70200;BME280;57587;55.688;37.600;2022-11-20T03:10:14;99588.13;;;-0.51;66.31
70200;BME280;57587;55.688;37.600;2022-11-20T03:12:41;99588.34;;;-0.54;65.66
70200;BME280;57587;55.688;37.600;2022-11-20T03:15:08;99575.72;;;-0.49;66.45
70200;BME280;57587;55.688;37.600;2022-11-20T03:17:35;99585.31;;;-0.36;66.18
70200;BME280;57587;55.688;37.600;2022-11-20T03:20:03;99588.03;;;-0.38;65.59
70200;BME280;57587;55.688;37.600;2022-11-20T03:22:31;99598.34;;;-0.35;65.78
70200;BME280;57587;55.688;37.600;2022-11-20T03:24:58;99591.41;;;-0.36;65.76
70200;BME280;57587;55.688;37.600;2022-11-20T03:27:25;99587.94;;;-0.36;66.19
70200;BME280;57587;55.688;37.600;2022-11-20T03:29:52;99603.13;;;-0.29;65.13
70200;BME280;57587;55.688;37.600;2022-11-20T03:32:19;99589.00;;;-0.39;65.11
70200;BME280;57587;55.688;37.600;2022-11-20T03:34:46;99595.72;;;-0.35;65.27
70200;BME280;57587;55.688;37.600;2022-11-20T03:37:13;99584.50;;;-0.37;65.64
70200;BME280;57587;55.688;37.600;2022-11-20T03:39:40;99600.13;;;-0.35;64.69
70200;BME280;57587;55.688;37.600;2022-11-20T03:42:08;99591.63;;;-0.39;64.99
70200;BME280;57587;55.688;37.600;2022-11-20T03:44:55;99584.34;;;-0.35;65.07
70200;BME280;57587;55.688;37.600;2022-11-20T03:47:22;99582.56;;;-0.35;65.33
70200;BME280;57587;55.688;37.600;2022-11-20T03:49:49;99595.59;;;-0.33;64.93
70200;BME280;57587;55.688;37.600;2022-11-20T03:52:16;99599.63;;;-0.40;64.67
70200;BME280;57587;55.688;37.600;2022-11-20T03:54:43;99602.22;;;-0.52;65.01
70200;BME280;57587;55.688;37.600;2022-11-20T03:57:13;99602.00;;;-0.49;65.54
70200;BME280;57587;55.688;37.600;2022-11-20T03:59:40;99600.28;;;-0.50;65.43
70200;BME280;57587;55.688;37.600;2022-11-20T04:02:07;99612.88;;;-0.66;65.63
70200;BME280;57587;55.688;37.600;2022-11-20T04:04:34;99605.16;;;-0.56;65.91
70200;BME280;57587;55.688;37.600;2022-11-20T04:10:20;99608.31;;;-0.51;65.05
70200;BME280;57587;55.688;37.600;2022-11-20T04:12:50;99589.53;;;-0.58;65.25
70200;BME280;57587;55.688;37.600;2022-11-20T04:15:19;99600.81;;;-0.44;65.19
70200;BME280;57587;55.688;37.600;2022-11-20T04:17:46;99630.91;;;-0.25;65.08
70200;BME280;57587;55.688;37.600;2022-11-20T04:20:13;99623.84;;;-0.24;64.43
70200;BME280;57587;55.688;37.600;2022-11-20T04:22:41;99633.41;;;-0.23;64.60
70200;BME280;57587;55.688;37.600;2022-11-20T04:25:08;99629.72;;;-0.20;65.16
70200;BME280;57587;55.688;37.600;2022-11-20T04:27:35;99640.56;;;-0.25;64.04
70200;BME280;57587;55.688;37.600;2022-11-20T04:30:02;99631.75;;;-0.24;64.59
70200;BME280;57587;55.688;37.600;2022-11-20T04:32:30;99641.81;;;-0.18;64.44
70200;BME280;57587;55.688;37.600;2022-11-20T04:34:57;99638.22;;;-0.17;64.32
70200;BME280;57587;55.688;37.600;2022-11-20T04:37:24;99646.84;;;-0.15;64.40
70200;BME280;57587;55.688;37.600;2022-11-20T04:39:51;99641.34;;;-0.12;64.44
70200;BME280;57587;55.688;37.600;2022-11-20T04:42:18;99646.59;;;-0.12;64.41
70200;BME280;57587;55.688;37.600;2022-11-20T04:44:58;99654.38;;;-0.10;63.76
70200;BME280;57587;55.688;37.600;2022-11-20T04:47:25;99654.88;;;-0.05;63.58
70200;BME280;57587;55.688;37.600;2022-11-20T04:49:52;99664.78;;;-0.09;63.73
70200;BME280;57587;55.688;37.600;2022-11-20T04:52:19;99666.19;;;-0.16;63.66
70200;BME280;57587;55.688;37.600;2022-11-20T04:54:46;99671.19;;;-0.24;63.70
70200;BME280;57587;55.688;37.600;2022-11-20T04:57:14;99673.59;;;-0.21;63.86
70200;BME280;57587;55.688;37.600;2022-11-20T04:59:41;99665.84;;;-0.35;63.87
70200;BME280;57587;55.688;37.600;2022-11-20T05:02:08;99680.19;;;-0.39;63.97
70200;BME280;57587;55.688;37.600;2022-11-20T05:04:36;99683.25;;;-0.45;64.72
70200;BME280;57587;55.688;37.600;2022-11-20T05:07:03;99683.91;;;-0.55;64.49
70200;BME280;57587;55.688;37.600;2022-11-20T05:09:30;99684.94;;;-0.44;64.46
70200;BME280;57587;55.688;37.600;2022-11-20T05:11:58;99686.94;;;-0.48;64.68
70200;BME280;57587;55.688;37.600;2022-11-20T05:14:25;99693.81;;;-0.34;64.56
70200;BME280;57587;55.688;37.600;2022-11-20T05:16:54;99691.84;;;-0.43;64.32
70200;BME280;57587;55.688;37.600;2022-11-20T05:19:21;99700.78;;;-0.33;64.39
70200;BME280;57587;55.688;37.600;2022-11-20T05:21:49;99695.75;;;-0.36;64.28
70200;BME280;57587;55.688;37.600;2022-11-20T05:24:16;99699.38;;;-0.26;64.56
70200;BME280;57587;55.688;37.600;2022-11-20T05:26:43;99690.25;;;-0.33;63.95
70200;BME280;57587;55.688;37.600;2022-11-20T05:29:17;99701.56;;;-0.20;64.34
70200;BME280;57587;55.688;37.600;2022-11-20T05:31:45;99711.31;;;-0.09;64.27
70200;BME280;57587;55.688;37.600;2022-11-20T05:34:12;99704.03;;;-0.06;63.71
70200;BME280;57587;55.688;37.600;2022-11-20T05:36:41;99721.03;;;0.02;63.69
70200;BME280;57587;55.688;37.600;2022-11-20T05:39:08;99719.56;;;-0.03;63.70
70200;BME280;57587;55.688;37.600;2022-11-20T05:41:36;99720.06;;;0.03;63.74
70200;BME280;57587;55.688;37.600;2022-11-20T05:44:03;99713.41;;;-0.38;64.52
70200;BME280;57587;55.688;37.600;2022-11-20T05:46:30;99714.63;;;-0.31;64.04
70200;BME280;57587;55.688;37.600;2022-11-20T05:48:57;99728.06;;;-0.23;63.79
70200;BME280;57587;55.688;37.600;2022-11-20T05:51:26;99719.72;;;-0.17;63.45
70200;BME280;57587;55.688;37.600;2022-11-20T05:53:53;99733.28;;;-0.10;63.26
70200;BME280;57587;55.688;37.600;2022-11-20T05:56:21;99740.63;;;-0.03;63.53
70200;BME280;57587;55.688;37.600;2022-11-20T05:58:49;99739.56;;;0.00;63.29
70200;BME280;57587;55.688;37.600;2022-11-20T06:01:22;99739.38;;;-0.10;62.49
70200;BME280;57587;55.688;37.600;2022-11-20T06:03:50;99757.69;;;-0.08;62.61
70200;BME280;57587;55.688;37.600;2022-11-20T06:06:19;99765.75;;;0.02;63.29
70200;BME280;57587;55.688;37.600;2022-11-20T06:08:47;99754.59;;;-0.26;63.12
70200;BME280;57587;55.688;37.600;2022-11-20T06:11:15;99761.06;;;-0.06;63.43
70200;BME280;57587;55.688;37.600;2022-11-20T06:13:43;99744.19;;;-0.04;62.81
70200;BME280;57587;55.688;37.600;2022-11-20T06:16:13;99734.31;;;-0.13;62.80
70200;BME280;57587;55.688;37.600;2022-11-20T06:18:40;99750.09;;;0.00;62.67
70200;BME280;57587;55.688;37.600;2022-11-20T06:21:10;99775.88;;;0.19;61.89
70200;BME280;57587;55.688;37.600;2022-11-20T06:23:37;99778.59;;;0.17;62.18
70200;BME280;57587;55.688;37.600;2022-11-20T06:26:10;99786.78;;;0.26;62.46
70200;BME280;57587;55.688;37.600;2022-11-20T06:28:38;99792.66;;;0.29;62.73
70200;BME280;57587;55.688;37.600;2022-11-20T06:31:06;99791.91;;;0.16;62.36
70200;BME280;57587;55.688;37.600;2022-11-20T06:33:34;99792.88;;;0.26;61.34
70200;BME280;57587;55.688;37.600;2022-11-20T06:36:01;99788.81;;;0.22;61.45
70200;BME280;57587;55.688;37.600;2022-11-20T06:38:36;99792.28;;;0.22;61.40
70200;BME280;57587;55.688;37.600;2022-11-20T06:41:10;99791.53;;;0.20;61.55
70200;BME280;57587;55.688;37.600;2022-11-20T06:43:38;99782.59;;;0.23;61.12
70200;BME280;57587;55.688;37.600;2022-11-20T06:46:05;99787.94;;;0.21;62.17
70200;BME280;57587;55.688;37.600;2022-11-20T06:48:32;99785.66;;;0.17;61.77
70200;BME280;57587;55.688;37.600;2022-11-20T06:51:04;99781.16;;;0.19;61.94
70200;BME280;57587;55.688;37.600;2022-11-20T06:53:32;99766.50;;;0.15;62.24
70200;BME280;57587;55.688;37.600;2022-11-20T06:55:59;99787.25;;;0.19;61.48
70200;BME280;57587;55.688;37.600;2022-11-20T06:58:30;99783.19;;;0.27;62.15
70200;BME280;57587;55.688;37.600;2022-11-20T07:01:03;99789.28;;;0.27;60.65
70200;BME280;57587;55.688;37.600;2022-11-20T07:03:30;99786.22;;;0.33;61.26
70200;BME280;57587;55.688;37.600;2022-11-20T07:05:58;99777.75;;;0.41;61.14
70200;BME280;57587;55.688;37.600;2022-11-20T07:08:26;99776.34;;;0.48;60.84
70200;BME280;57587;55.688;37.600;2022-11-20T07:10:57;99769.41;;;0.47;60.55
70200;BME280;57587;55.688;37.600;2022-11-20T07:13:26;99777.03;;;0.39;60.80
70200;BME280;57587;55.688;37.600;2022-11-20T07:15:54;99783.03;;;0.41;60.80
70200;BME280;57587;55.688;37.600;2022-11-20T07:18:24;99774.28;;;0.40;60.78
70200;BME280;57587;55.688;37.600;2022-11-20T07:20:51;99797.63;;;0.45;60.17
70200;BME280;57587;55.688;37.600;2022-11-20T07:23:18;99791.19;;;0.49;60.83
70200;BME280;57587;55.688;37.600;2022-11-20T07:25:45;99784.25;;;0.48;60.69
70200;BME280;57587;55.688;37.600;2022-11-20T07:28:13;99781.97;;;0.55;60.79
70200;BME280;57587;55.688;37.600;2022-11-20T07:30:40;99775.28;;;0.51;60.82
70200;BME280;57587;55.688;37.600;2022-11-20T07:33:07;99785.13;;;0.60;60.01
70200;BME280;57587;55.688;37.600;2022-11-20T07:35:34;99781.97;;;0.55;59.88
70200;BME280;57587;55.688;37.600;2022-11-20T07:38:05;99796.25;;;0.63;59.99
70200;BME280;57587;55.688;37.600;2022-11-20T07:40:32;99788.00;;;0.68;59.45
70200;BME280;57587;55.688;37.600;2022-11-20T07:42:59;99783.38;;;0.72;60.05
70200;BME280;57587;55.688;37.600;2022-11-20T07:45:27;99801.94;;;0.81;59.59
70200;BME280;57587;55.688;37.600;2022-11-20T07:47:54;99808.78;;;0.84;59.91
70200;BME280;57587;55.688;37.600;2022-11-20T07:50:21;99806.84;;;0.86;59.98
70200;BME280;57587;55.688;37.600;2022-11-20T07:52:48;99818.84;;;0.90;59.45
70200;BME280;57587;55.688;37.600;2022-11-20T07:55:15;99808.88;;;0.82;58.83
70200;BME280;57587;55.688;37.600;2022-11-20T07:57:43;99790.63;;;0.68;59.11
70200;BME280;57587;55.688;37.600;2022-11-20T08:00:14;99800.25;;;0.80;59.97
70200;BME280;57587;55.688;37.600;2022-11-20T08:02:42;99812.38;;;0.94;59.30
70200;BME280;57587;55.688;37.600;2022-11-20T08:05:09;99816.59;;;0.97;59.38
70200;BME280;57587;55.688;37.600;2022-11-20T08:07:38;99822.84;;;1.07;59.39
70200;BME280;57587;55.688;37.600;2022-11-20T08:10:13;99820.19;;;1.07;58.46
70200;BME280;57587;55.688;37.600;2022-11-20T08:12:58;99804.63;;;1.04;58.40
70200;BME280;57587;55.688;37.600;2022-11-20T08:16:07;99837.72;;;1.19;57.99
70200;BME280;57587;55.688;37.600;2022-11-20T08:18:34;99827.94;;;0.86;58.67
70200;BME280;57587;55.688;37.600;2022-11-20T08:21:02;99831.84;;;0.69;59.70
70200;BME280;57587;55.688;37.600;2022-11-20T08:23:31;99819.91;;;0.87;59.20
70200;BME280;57587;55.688;37.600;2022-11-20T08:25:58;99823.44;;;0.99;59.15
70200;BME280;57587;55.688;37.600;2022-11-20T08:28:57;99828.94;;;0.96;58.68
70200;BME280;57587;55.688;37.600;2022-11-20T08:31:27;99833.78;;;0.89;59.38
70200;BME280;57587;55.688;37.600;2022-11-20T08:34:18;99842.81;;;0.63;59.79
70200;BME280;57587;55.688;37.600;2022-11-20T08:36:45;99841.19;;;0.73;59.80
70200;BME280;57587;55.688;37.600;2022-11-20T08:39:13;99841.53;;;0.68;60.27
70200;BME280;57587;55.688;37.600;2022-11-20T08:41:43;99831.59;;;0.72;59.46
70200;BME280;57587;55.688;37.600;2022-11-20T08:44:12;99836.66;;;0.75;59.89
70200;BME280;57587;55.688;37.600;2022-11-20T08:46:42;99842.75;;;0.76;59.79
70200;BME280;57587;55.688;37.600;2022-11-20T08:49:11;99841.06;;;0.75;60.58
70200;BME280;57587;55.688;37.600;2022-11-20T08:51:39;99843.50;;;0.78;59.65
70200;BME280;57587;55.688;37.600;2022-11-20T08:54:09;99854.41;;;0.84;59.54
70200;BME280;57587;55.688;37.600;2022-11-20T08:56:39;99854.81;;;0.67;60.43
70200;BME280;57587;55.688;37.600;2022-11-20T08:59:06;99865.50;;;0.77;60.66
70200;BME280;57587;55.688;37.600;2022-11-20T09:01:53;99872.78;;;0.49;61.06
70200;BME280;57587;55.688;37.600;2022-11-20T09:04:22;99883.00;;;0.78;61.73
70200;BME280;57587;55.688;37.600;2022-11-20T09:06:49;99885.41;;;0.92;61.02
70200;BME280;57587;55.688;37.600;2022-11-20T09:09:49;99884.97;;;0.98;60.84
70200;BME280;57587;55.688;37.600;2022-11-20T09:12:40;99884.41;;;1.17;60.60
70200;BME280;57587;55.688;37.600;2022-11-20T09:15:10;99871.00;;;1.09;59.77
70200;BME280;57587;55.688;37.600;2022-11-20T09:17:38;99882.97;;;1.13;60.10
70200;BME280;57587;55.688;37.600;2022-11-20T09:20:05;99884.41;;;1.06;60.90
70200;BME280;57587;55.688;37.600;2022-11-20T09:22:32;99900.97;;;1.19;60.38
70200;BME280;57587;55.688;37.600;2022-11-20T09:25:28;99896.19;;;1.24;62.00
70200;BME280;57587;55.688;37.600;2022-11-20T09:27:59;99895.72;;;1.30;60.10
70200;BME280;57587;55.688;37.600;2022-11-20T09:30:26;99893.56;;;1.24;60.09
70200;BME280;57587;55.688;37.600;2022-11-20T09:32:56;99937.22;;;1.51;60.32
70200;BME280;57587;55.688;37.600;2022-11-20T09:35:26;99904.38;;;1.44;60.52
70200;BME280;57587;55.688;37.600;2022-11-20T09:37:56;99923.31;;;1.37;59.94
70200;BME280;57587;55.688;37.600;2022-11-20T09:40:28;99919.69;;;1.38;60.80
70200;BME280;57587;55.688;37.600;2022-11-20T09:45:56;99923.94;;;1.52;61.16
70200;BME280;57587;55.688;37.600;2022-11-20T09:48:32;99925.50;;;1.55;61.13
70200;BME280;57587;55.688;37.600;2022-11-20T09:56:55;99925.75;;;1.74;60.70
70200;BME280;57587;55.688;37.600;2022-11-20T10:02:03;99922.16;;;1.75;60.32
70200;BME280;57587;55.688;37.600;2022-11-20T10:04:33;99921.19;;;1.76;60.76
70200;BME280;57587;55.688;37.600;2022-11-20T10:07:17;99926.22;;;1.79;60.86
70200;BME280;57587;55.688;37.600;2022-11-20T10:10:04;99936.66;;;1.70;61.07
70200;BME280;57587;55.688;37.600;2022-11-20T10:20:50;99945.69;;;1.90;61.87
70200;BME280;57587;55.688;37.600;2022-11-20T10:23:34;99949.25;;;1.89;61.11
70200;BME280;57587;55.688;37.600;2022-11-20T10:28:50;99952.63;;;2.02;61.04
70200;BME280;57587;55.688;37.600;2022-11-20T10:31:34;99945.66;;;2.01;61.64
70200;BME280;57587;55.688;37.600;2022-11-20T10:37:08;99951.69;;;2.14;61.89
70200;BME280;57587;55.688;37.600;2022-11-20T10:39:43;99948.91;;;2.16;60.79
70200;BME280;57587;55.688;37.600;2022-11-20T10:42:22;99949.97;;;2.24;61.23
70200;BME280;57587;55.688;37.600;2022-11-20T10:44:58;99941.09;;;2.25;60.25
70200;BME280;57587;55.688;37.600;2022-11-20T10:47:32;99939.19;;;2.27;60.27
70200;BME280;57587;55.688;37.600;2022-11-20T10:50:04;99948.41;;;2.33;59.63
70200;BME280;57587;55.688;37.600;2022-11-20T10:55:23;99976.75;;;2.42;58.77
70200;BME280;57587;55.688;37.600;2022-11-20T11:00:45;99962.44;;;2.22;58.71
70200;BME280;57587;55.688;37.600;2022-11-20T11:03:31;99964.75;;;2.16;58.78
70200;BME280;57587;55.688;37.600;2022-11-20T11:06:06;99972.19;;;2.22;60.17
70200;BME280;57587;55.688;37.600;2022-11-20T11:08:42;99974.47;;;2.26;59.59
70200;BME280;57587;55.688;37.600;2022-11-20T11:11:31;99968.81;;;2.20;59.56
70200;BME280;57587;55.688;37.600;2022-11-20T11:14:15;99982.75;;;2.22;59.50
70200;BME280;57587;55.688;37.600;2022-11-20T11:16:56;99972.41;;;2.19;59.76
70200;BME280;57587;55.688;37.600;2022-11-20T11:19:31;99964.88;;;2.14;59.80
70200;BME280;57587;55.688;37.600;2022-11-20T11:21:59;99982.63;;;2.12;60.11
70200;BME280;57587;55.688;37.600;2022-11-20T11:24:31;99990.31;;;2.15;59.48
70200;BME280;57587;55.688;37.600;2022-11-20T11:27:31;99987.91;;;2.12;59.40
70200;BME280;57587;55.688;37.600;2022-11-20T11:30:21;99978.56;;;2.08;59.63
70200;BME280;57587;55.688;37.600;2022-11-20T11:33:05;99971.34;;;1.99;58.58
70200;BME280;57587;55.688;37.600;2022-11-20T11:35:33;99993.41;;;2.09;58.79
70200;BME280;57587;55.688;37.600;2022-11-20T11:38:11;99987.91;;;2.12;59.19
70200;BME280;57587;55.688;37.600;2022-11-20T11:40:43;99984.53;;;2.10;58.76
70200;BME280;57587;55.688;37.600;2022-11-20T11:43:22;99978.44;;;1.98;57.97
70200;BME280;57587;55.688;37.600;2022-11-20T11:46:33;99990.28;;;2.04;56.76
70200;BME280;57587;55.688;37.600;2022-11-20T11:49:19;99992.81;;;2.05;57.03
70200;BME280;57587;55.688;37.600;2022-11-20T11:52:00;99988.50;;;2.04;56.47
70200;BME280;57587;55.688;37.600;2022-11-20T11:54:34;99992.22;;;2.02;57.11
70200;BME280;57587;55.688;37.600;2022-11-20T12:00:10;100001.09;;;1.90;57.20
70200;BME280;57587;55.688;37.600;2022-11-20T12:08:24;100002.03;;;1.77;56.43
70200;BME280;57587;55.688;37.600;2022-11-20T12:13:36;100009.56;;;1.82;56.98
70200;BME280;57587;55.688;37.600;2022-11-20T12:16:11;99997.81;;;1.75;56.24
70200;BME280;57587;55.688;37.600;2022-11-20T12:18:42;100012.13;;;1.83;57.45
70200;BME280;57587;55.688;37.600;2022-11-20T12:21:36;99994.34;;;1.74;57.50
70200;BME280;57587;55.688;37.600;2022-11-20T12:27:44;99996.03;;;1.87;56.86
70200;BME280;57587;55.688;37.600;2022-11-20T12:30:06;99998.09;;;1.83;56.45
70200;BME280;57587;55.688;37.600;2022-11-20T12:41:15;99999.38;;;1.77;57.22
70200;BME280;57587;55.688;37.600;2022-11-20T12:47:13;100010.78;;;1.78;57.59
70200;BME280;57587;55.688;37.600;2022-11-20T12:49:59;100007.53;;;1.74;56.89
70200;BME280;57587;55.688;37.600;2022-11-20T12:52:51;100003.47;;;1.81;56.60
70200;BME280;57587;55.688;37.600;2022-11-20T12:58:20;100022.66;;;1.83;56.54
70200;BME280;57587;55.688;37.600;2022-11-20T13:01:40;100025.41;;;1.82;57.22
70200;BME280;57587;55.688;37.600;2022-11-20T13:07:10;100032.94;;;1.75;56.39
70200;BME280;57587;55.688;37.600;2022-11-20T13:09:48;100025.22;;;1.61;56.53
70200;BME280;57587;55.688;37.600;2022-11-20T13:17:52;100033.41;;;1.69;56.55
70200;BME280;57587;55.688;37.600;2022-11-20T13:20:33;100023.56;;;1.60;56.45
70200;BME280;57587;55.688;37.600;2022-11-20T13:23:01;100019.00;;;1.62;56.57
70200;BME280;57587;55.688;37.600;2022-11-20T13:28:27;100035.69;;;1.63;56.94
70200;BME280;57587;55.688;37.600;2022-11-20T13:30:57;100024.00;;;1.54;56.92
70200;BME280;57587;55.688;37.600;2022-11-20T13:36:04;100042.53;;;1.65;55.63
70200;BME280;57587;55.688;37.600;2022-11-20T13:38:48;100049.47;;;1.66;57.08
70200;BME280;57587;55.688;37.600;2022-11-20T13:41:36;100045.25;;;1.64;56.07
70200;BME280;57587;55.688;37.600;2022-11-20T13:46:41;100043.63;;;1.74;56.87
70200;BME280;57587;55.688;37.600;2022-11-20T13:49:29;100042.28;;;1.68;56.12
70200;BME280;57587;55.688;37.600;2022-11-20T13:55:25;100057.44;;;1.77;56.58
70200;BME280;57587;55.688;37.600;2022-11-20T14:00:29;100055.63;;;1.78;55.47
70200;BME280;57587;55.688;37.600;2022-11-20T14:03:02;100059.56;;;1.72;55.95
70200;BME280;57587;55.688;37.600;2022-11-20T14:05:36;100053.44;;;1.72;56.30
70200;BME280;57587;55.688;37.600;2022-11-20T14:08:06;100055.03;;;1.74;56.77
70200;BME280;57587;55.688;37.600;2022-11-20T14:10:40;100053.31;;;1.73;55.76
70200;BME280;57587;55.688;37.600;2022-11-20T14:13:15;100051.88;;;1.69;56.12
70200;BME280;57587;55.688;37.600;2022-11-20T14:15:44;100066.75;;;1.70;57.29
70200;BME280;57587;55.688;37.600;2022-11-20T14:18:14;100076.22;;;1.73;56.61
70200;BME280;57587;55.688;37.600;2022-11-20T14:20:42;100073.50;;;1.74;55.76
70200;BME280;57587;55.688;37.600;2022-11-20T14:23:26;100078.88;;;1.73;55.90
70200;BME280;57587;55.688;37.600;2022-11-20T14:25:56;100080.16;;;1.67;56.28
70200;BME280;57587;55.688;37.600;2022-11-20T14:28:30;100077.53;;;1.67;56.56
70200;BME280;57587;55.688;37.600;2022-11-20T14:30:58;100072.00;;;1.70;56.53
70200;BME280;57587;55.688;37.600;2022-11-20T14:33:26;100069.88;;;1.75;56.19
70200;BME280;57587;55.688;37.600;2022-11-20T14:35:56;100068.22;;;1.74;56.49
70200;BME280;57587;55.688;37.600;2022-11-20T14:38:27;100070.72;;;1.76;55.52
70200;BME280;57587;55.688;37.600;2022-11-20T14:41:08;100092.44;;;1.79;56.95
70200;BME280;57587;55.688;37.600;2022-11-20T14:43:36;100098.16;;;1.73;57.36
70200;BME280;57587;55.688;37.600;2022-11-20T14:46:07;100107.56;;;1.77;56.42
70200;BME280;57587;55.688;37.600;2022-11-20T14:48:43;100111.50;;;1.72;57.58
70200;BME280;57587;55.688;37.600;2022-11-20T14:51:22;100100.31;;;1.68;57.10